sensor_id;sensor_type;location;lat;lon;timestamp;P1;durP1;ratioP1;P2;durP2;ratioP2
41101;SDS011;26845;50.190;19.178;2022-10-16T00:01:26;15.40;;;9.88;;
41101;SDS011;26845;50.190;19.178;2022-10-16T00:03:59;16.87;;;9.65;;
41101;SDS011;26845;50.190;19.178;2022-10-16T00:06:30;18.12;;;9.83;;
41101;SDS011;26845;50.190;19.178;2022-10-16T00:08:57;13.85;;;9.73;;
41101;SDS011;26845;50.190;19.178;2022-10-16T00:11:25;15.15;;;9.08;;
41101;SDS011;26845;50.190;19.178;2022-10-16T00:13:56;14.38;;;9.53;;
41101;SDS011;26845;50.190;19.178;2022-10-16T00:16:26;15.32;;;9.53;;
41101;SDS011;26845;50.190;19.178;2022-10-16T00:18:54;17.25;;;10.65;;
41101;SDS011;26845;50.190;19.178;2022-10-16T00:21:25;17.40;;;12.68;;
41101;SDS011;26845;50.190;19.178;2022-10-16T00:23:58;20.48;;;12.20;;
41101;SDS011;26845;50.190;19.178;2022-10-16T00:26:32;16.70;;;10.85;;
41101;SDS011;26845;50.190;19.178;2022-10-16T00:29:00;19.20;;;9.85;;
41101;SDS011;26845;50.190;19.178;2022-10-16T00:31:28;14.78;;;9.35;;
41101;SDS011;26845;50.190;19.178;2022-10-16T00:33:55;12.68;;;9.23;;
41101;SDS011;26845;50.190;19.178;2022-10-16T00:36:23;14.07;;;9.35;;
41101;SDS011;26845;50.190;19.178;2022-10-16T00:38:56;13.45;;;9.48;;
41101;SDS011;26845;50.190;19.178;2022-10-16T00:41:23;13.98;;;9.53;;
41101;SDS011;26845;50.190;19.178;2022-10-16T00:43:52;16.45;;;9.38;;
41101;SDS011;26845;50.190;19.178;2022-10-16T00:46:35;14.40;;;9.48;;
41101;SDS011;26845;50.190;19.178;2022-10-16T00:49:12;15.32;;;10.05;;
41101;SDS011;26845;50.190;19.178;2022-10-16T00:51:46;14.28;;;9.88;;
41101;SDS011;26845;50.190;19.178;2022-10-16T00:54:17;16.57;;;9.18;;
41101;SDS011;26845;50.190;19.178;2022-10-16T00:56:51;15.48;;;9.58;;
41101;SDS011;26845;50.190;19.178;2022-10-16T00:59:21;14.55;;;9.18;;
41101;SDS011;26845;50.190;19.178;2022-10-16T01:01:55;18.25;;;9.83;;
41101;SDS011;26845;50.190;19.178;2022-10-16T01:04:24;17.17;;;10.20;;
41101;SDS011;26845;50.190;19.178;2022-10-16T01:07:11;16.12;;;10.18;;
41101;SDS011;26845;50.190;19.178;2022-10-16T01:15:34;15.28;;;10.20;;
41101;SDS011;26845;50.190;19.178;2022-10-16T01:18:23;18.92;;;10.63;;
41101;SDS011;26845;50.190;19.178;2022-10-16T01:21:08;15.53;;;9.85;;
41101;SDS011;26845;50.190;19.178;2022-10-16T01:23:51;18.70;;;10.88;;
41101;SDS011;26845;50.190;19.178;2022-10-16T01:32:20;15.80;;;9.73;;
41101;SDS011;26845;50.190;19.178;2022-10-16T01:34:52;19.48;;;10.43;;
41101;SDS011;26845;50.190;19.178;2022-10-16T01:37:32;19.32;;;11.05;;
41101;SDS011;26845;50.190;19.178;2022-10-16T01:40:07;18.30;;;10.72;;
41101;SDS011;26845;50.190;19.178;2022-10-16T01:42:39;18.92;;;11.48;;
41101;SDS011;26845;50.190;19.178;2022-10-16T01:45:15;15.48;;;11.35;;
41101;SDS011;26845;50.190;19.178;2022-10-16T01:47:45;18.65;;;11.48;;
41101;SDS011;26845;50.190;19.178;2022-10-16T01:50:15;15.85;;;10.60;;
41101;SDS011;26845;50.190;19.178;2022-10-16T01:52:46;15.38;;;10.43;;
41101;SDS011;26845;50.190;19.178;2022-10-16T01:55:18;14.80;;;10.90;;
41101;SDS011;26845;50.190;19.178;2022-10-16T01:57:51;16.62;;;11.12;;
41101;SDS011;26845;50.190;19.178;2022-10-16T02:00:20;15.72;;;11.20;;
41101;SDS011;26845;50.190;19.178;2022-10-16T02:02:49;15.90;;;10.55;;
41101;SDS011;26845;50.190;19.178;2022-10-16T02:07:55;16.25;;;11.48;;
41101;SDS011;26845;50.190;19.178;2022-10-16T02:10:22;18.07;;;10.38;;
41101;SDS011;26845;50.190;19.178;2022-10-16T02:12:57;16.97;;;10.95;;
41101;SDS011;26845;50.190;19.178;2022-10-16T02:15:33;19.00;;;11.12;;
41101;SDS011;26845;50.190;19.178;2022-10-16T02:17:59;17.23;;;11.55;;
41101;SDS011;26845;50.190;19.178;2022-10-16T02:20:27;17.25;;;10.63;;
41101;SDS011;26845;50.190;19.178;2022-10-16T02:22:58;15.15;;;10.40;;
41101;SDS011;26845;50.190;19.178;2022-10-16T02:25:27;14.93;;;10.35;;
41101;SDS011;26845;50.190;19.178;2022-10-16T02:28:16;18.67;;;11.12;;
41101;SDS011;26845;50.190;19.178;2022-10-16T02:30:49;14.33;;;10.05;;
41101;SDS011;26845;50.190;19.178;2022-10-16T02:33:22;15.50;;;10.05;;
41101;SDS011;26845;50.190;19.178;2022-10-16T02:35:52;15.65;;;9.98;;
41101;SDS011;26845;50.190;19.178;2022-10-16T02:38:21;15.55;;;9.70;;
41101;SDS011;26845;50.190;19.178;2022-10-16T02:40:49;12.93;;;9.58;;
41101;SDS011;26845;50.190;19.178;2022-10-16T02:43:17;15.55;;;10.70;;
41101;SDS011;26845;50.190;19.178;2022-10-16T02:45:43;16.65;;;10.15;;
41101;SDS011;26845;50.190;19.178;2022-10-16T02:48:10;15.78;;;10.38;;
41101;SDS011;26845;50.190;19.178;2022-10-16T02:50:37;16.73;;;9.83;;
41101;SDS011;26845;50.190;19.178;2022-10-16T02:53:03;18.77;;;10.08;;
41101;SDS011;26845;50.190;19.178;2022-10-16T02:55:30;16.60;;;10.43;;
41101;SDS011;26845;50.190;19.178;2022-10-16T02:57:57;14.40;;;9.70;;
41101;SDS011;26845;50.190;19.178;2022-10-16T03:00:23;17.90;;;10.98;;
41101;SDS011;26845;50.190;19.178;2022-10-16T03:02:50;15.38;;;10.75;;
41101;SDS011;26845;50.190;19.178;2022-10-16T03:05:16;17.27;;;10.48;;
41101;SDS011;26845;50.190;19.178;2022-10-16T03:07:43;18.95;;;10.80;;
41101;SDS011;26845;50.190;19.178;2022-10-16T03:10:10;14.25;;;11.33;;
41101;SDS011;26845;50.190;19.178;2022-10-16T03:12:36;14.73;;;10.90;;
41101;SDS011;26845;50.190;19.178;2022-10-16T03:15:03;19.00;;;11.63;;
41101;SDS011;26845;50.190;19.178;2022-10-16T03:17:31;17.82;;;10.80;;
41101;SDS011;26845;50.190;19.178;2022-10-16T03:19:58;17.23;;;11.20;;
41101;SDS011;26845;50.190;19.178;2022-10-16T03:22:25;16.57;;;11.90;;
41101;SDS011;26845;50.190;19.178;2022-10-16T03:24:52;18.20;;;11.45;;
41101;SDS011;26845;50.190;19.178;2022-10-16T03:27:18;15.78;;;10.15;;
41101;SDS011;26845;50.190;19.178;2022-10-16T03:29:45;17.40;;;11.25;;
41101;SDS011;26845;50.190;19.178;2022-10-16T03:32:11;16.70;;;10.82;;
41101;SDS011;26845;50.190;19.178;2022-10-16T03:34:38;17.27;;;11.33;;
41101;SDS011;26845;50.190;19.178;2022-10-16T03:37:05;16.45;;;11.48;;
41101;SDS011;26845;50.190;19.178;2022-10-16T03:39:31;15.58;;;10.10;;
41101;SDS011;26845;50.190;19.178;2022-10-16T03:41:58;17.48;;;12.30;;
41101;SDS011;26845;50.190;19.178;2022-10-16T03:44:25;19.85;;;11.03;;
41101;SDS011;26845;50.190;19.178;2022-10-16T03:46:51;15.58;;;10.75;;
41101;SDS011;26845;50.190;19.178;2022-10-16T03:49:18;19.48;;;11.78;;
41101;SDS011;26845;50.190;19.178;2022-10-16T03:51:44;15.23;;;11.12;;
41101;SDS011;26845;50.190;19.178;2022-10-16T03:54:12;16.70;;;10.68;;
41101;SDS011;26845;50.190;19.178;2022-10-16T03:56:39;13.32;;;10.10;;
41101;SDS011;26845;50.190;19.178;2022-10-16T03:59:05;15.90;;;10.82;;
41101;SDS011;26845;50.190;19.178;2022-10-16T04:01:32;14.80;;;10.20;;
41101;SDS011;26845;50.190;19.178;2022-10-16T04:03:58;17.55;;;10.25;;
41101;SDS011;26845;50.190;19.178;2022-10-16T04:06:25;14.87;;;10.78;;
41101;SDS011;26845;50.190;19.178;2022-10-16T04:08:52;20.08;;;11.93;;
41101;SDS011;26845;50.190;19.178;2022-10-16T04:11:18;15.25;;;10.93;;
41101;SDS011;26845;50.190;19.178;2022-10-16T04:13:45;18.07;;;10.55;;
41101;SDS011;26845;50.190;19.178;2022-10-16T04:16:12;18.27;;;10.05;;
41101;SDS011;26845;50.190;19.178;2022-10-16T04:18:38;17.30;;;10.03;;
41101;SDS011;26845;50.190;19.178;2022-10-16T04:21:05;13.18;;;10.18;;
41101;SDS011;26845;50.190;19.178;2022-10-16T04:23:33;14.95;;;10.50;;
41101;SDS011;26845;50.190;19.178;2022-10-16T04:26:00;19.98;;;11.43;;
41101;SDS011;26845;50.190;19.178;2022-10-16T04:28:27;20.08;;;12.30;;
41101;SDS011;26845;50.190;19.178;2022-10-16T04:30:55;15.88;;;10.53;;
41101;SDS011;26845;50.190;19.178;2022-10-16T04:33:22;15.35;;;10.05;;
41101;SDS011;26845;50.190;19.178;2022-10-16T04:35:55;17.92;;;11.80;;
41101;SDS011;26845;50.190;19.178;2022-10-16T04:38:23;16.02;;;11.00;;
41101;SDS011;26845;50.190;19.178;2022-10-16T04:40:49;16.05;;;10.40;;
41101;SDS011;26845;50.190;19.178;2022-10-16T04:43:16;17.65;;;11.38;;
41101;SDS011;26845;50.190;19.178;2022-10-16T04:45:43;16.50;;;11.53;;
41101;SDS011;26845;50.190;19.178;2022-10-16T04:48:10;14.33;;;10.38;;
41101;SDS011;26845;50.190;19.178;2022-10-16T04:50:36;19.15;;;11.00;;
41101;SDS011;26845;50.190;19.178;2022-10-16T04:53:03;16.62;;;11.38;;
41101;SDS011;26845;50.190;19.178;2022-10-16T04:55:30;17.12;;;12.18;;
41101;SDS011;26845;50.190;19.178;2022-10-16T04:57:56;18.02;;;11.90;;
41101;SDS011;26845;50.190;19.178;2022-10-16T05:00:23;16.23;;;12.47;;
41101;SDS011;26845;50.190;19.178;2022-10-16T05:02:50;16.73;;;11.48;;
41101;SDS011;26845;50.190;19.178;2022-10-16T05:05:17;18.48;;;11.60;;
41101;SDS011;26845;50.190;19.178;2022-10-16T05:07:45;17.45;;;11.95;;
41101;SDS011;26845;50.190;19.178;2022-10-16T05:10:15;17.87;;;11.80;;
41101;SDS011;26845;50.190;19.178;2022-10-16T05:12:43;17.12;;;11.55;;
41101;SDS011;26845;50.190;19.178;2022-10-16T05:15:10;20.30;;;11.40;;
41101;SDS011;26845;50.190;19.178;2022-10-16T05:17:36;20.72;;;10.18;;
41101;SDS011;26845;50.190;19.178;2022-10-16T05:20:03;16.65;;;10.30;;
41101;SDS011;26845;50.190;19.178;2022-10-16T05:22:31;14.33;;;11.05;;
41101;SDS011;26845;50.190;19.178;2022-10-16T05:24:58;17.37;;;10.35;;
41101;SDS011;26845;50.190;19.178;2022-10-16T05:27:24;13.58;;;10.20;;
41101;SDS011;26845;50.190;19.178;2022-10-16T05:29:51;14.03;;;10.18;;
41101;SDS011;26845;50.190;19.178;2022-10-16T05:32:18;16.42;;;10.75;;
41101;SDS011;26845;50.190;19.178;2022-10-16T05:34:45;16.48;;;9.78;;
41101;SDS011;26845;50.190;19.178;2022-10-16T05:37:12;16.25;;;10.35;;
41101;SDS011;26845;50.190;19.178;2022-10-16T05:39:38;14.60;;;10.60;;
41101;SDS011;26845;50.190;19.178;2022-10-16T05:42:05;14.07;;;10.15;;
41101;SDS011;26845;50.190;19.178;2022-10-16T05:44:32;16.97;;;10.72;;
41101;SDS011;26845;50.190;19.178;2022-10-16T05:46:59;14.55;;;10.15;;
41101;SDS011;26845;50.190;19.178;2022-10-16T05:49:26;15.30;;;9.18;;
41101;SDS011;26845;50.190;19.178;2022-10-16T05:51:52;13.93;;;9.88;;
41101;SDS011;26845;50.190;19.178;2022-10-16T05:54:19;16.67;;;12.45;;
41101;SDS011;26845;50.190;19.178;2022-10-16T05:56:45;17.60;;;11.50;;
41101;SDS011;26845;50.190;19.178;2022-10-16T05:59:12;14.83;;;10.45;;
41101;SDS011;26845;50.190;19.178;2022-10-16T06:01:39;17.67;;;10.95;;
41101;SDS011;26845;50.190;19.178;2022-10-16T06:04:05;21.35;;;14.18;;
41101;SDS011;26845;50.190;19.178;2022-10-16T06:06:32;37.45;;;20.30;;
41101;SDS011;26845;50.190;19.178;2022-10-16T06:08:59;41.42;;;23.57;;
41101;SDS011;26845;50.190;19.178;2022-10-16T06:11:27;28.55;;;17.27;;
41101;SDS011;26845;50.190;19.178;2022-10-16T06:13:58;36.38;;;20.90;;
41101;SDS011;26845;50.190;19.178;2022-10-16T06:16:28;42.00;;;23.55;;
41101;SDS011;26845;50.190;19.178;2022-10-16T06:18:56;50.70;;;28.70;;
41101;SDS011;26845;50.190;19.178;2022-10-16T06:21:23;60.88;;;34.80;;
41101;SDS011;26845;50.190;19.178;2022-10-16T06:23:52;50.05;;;28.50;;
41101;SDS011;26845;50.190;19.178;2022-10-16T06:26:21;56.15;;;34.00;;
41101;SDS011;26845;50.190;19.178;2022-10-16T06:28:51;50.78;;;30.95;;
41101;SDS011;26845;50.190;19.178;2022-10-16T06:31:18;53.75;;;31.60;;
41101;SDS011;26845;50.190;19.178;2022-10-16T06:33:44;50.03;;;31.60;;
41101;SDS011;26845;50.190;19.178;2022-10-16T06:36:14;48.30;;;30.75;;
41101;SDS011;26845;50.190;19.178;2022-10-16T06:38:43;43.68;;;27.60;;
41101;SDS011;26845;50.190;19.178;2022-10-16T06:41:17;41.48;;;27.95;;
41101;SDS011;26845;50.190;19.178;2022-10-16T06:43:47;38.30;;;26.15;;
41101;SDS011;26845;50.190;19.178;2022-10-16T06:46:16;38.13;;;25.82;;
41101;SDS011;26845;50.190;19.178;2022-10-16T06:48:45;38.85;;;27.42;;
41101;SDS011;26845;50.190;19.178;2022-10-16T06:51:17;41.85;;;26.40;;
41101;SDS011;26845;50.190;19.178;2022-10-16T06:53:45;40.48;;;27.77;;
41101;SDS011;26845;50.190;19.178;2022-10-16T06:58:47;39.20;;;26.17;;
41101;SDS011;26845;50.190;19.178;2022-10-16T07:01:15;37.55;;;25.80;;
41101;SDS011;26845;50.190;19.178;2022-10-16T07:03:44;36.13;;;25.88;;
41101;SDS011;26845;50.190;19.178;2022-10-16T07:06:17;40.40;;;27.67;;
41101;SDS011;26845;50.190;19.178;2022-10-16T07:08:44;38.35;;;24.87;;
41101;SDS011;26845;50.190;19.178;2022-10-16T07:11:13;38.70;;;24.75;;
41101;SDS011;26845;50.190;19.178;2022-10-16T07:13:44;29.00;;;21.73;;
41101;SDS011;26845;50.190;19.178;2022-10-16T07:16:16;32.78;;;22.10;;
41101;SDS011;26845;50.190;19.178;2022-10-16T07:18:47;34.85;;;22.13;;
41101;SDS011;26845;50.190;19.178;2022-10-16T07:21:16;30.75;;;20.62;;
41101;SDS011;26845;50.190;19.178;2022-10-16T07:23:54;29.70;;;19.52;;
41101;SDS011;26845;50.190;19.178;2022-10-16T07:26:25;29.67;;;20.62;;
41101;SDS011;26845;50.190;19.178;2022-10-16T07:28:52;28.95;;;18.30;;
41101;SDS011;26845;50.190;19.178;2022-10-16T07:31:19;23.98;;;16.67;;
41101;SDS011;26845;50.190;19.178;2022-10-16T07:33:48;16.60;;;12.07;;
41101;SDS011;26845;50.190;19.178;2022-10-16T07:36:16;22.22;;;14.58;;
41101;SDS011;26845;50.190;19.178;2022-10-16T07:38:45;19.17;;;14.05;;
41101;SDS011;26845;50.190;19.178;2022-10-16T07:41:14;16.97;;;12.15;;
41101;SDS011;26845;50.190;19.178;2022-10-16T07:46:18;15.20;;;10.72;;
41101;SDS011;26845;50.190;19.178;2022-10-16T07:48:48;13.55;;;10.45;;
41101;SDS011;26845;50.190;19.178;2022-10-16T07:51:17;14.00;;;9.45;;
41101;SDS011;26845;50.190;19.178;2022-10-16T07:53:47;17.82;;;12.07;;
41101;SDS011;26845;50.190;19.178;2022-10-16T07:56:15;14.00;;;10.63;;
41101;SDS011;26845;50.190;19.178;2022-10-16T07:58:43;15.08;;;10.68;;
41101;SDS011;26845;50.190;19.178;2022-10-16T08:01:12;17.67;;;10.90;;
41101;SDS011;26845;50.190;19.178;2022-10-16T08:03:42;16.23;;;10.20;;
41101;SDS011;26845;50.190;19.178;2022-10-16T08:06:12;14.50;;;10.30;;
41101;SDS011;26845;50.190;19.178;2022-10-16T08:08:39;13.30;;;9.60;;
41101;SDS011;26845;50.190;19.178;2022-10-16T08:11:06;16.37;;;9.58;;
41101;SDS011;26845;50.190;19.178;2022-10-16T08:13:34;15.15;;;8.83;;
41101;SDS011;26845;50.190;19.178;2022-10-16T08:16:01;13.43;;;9.85;;
41101;SDS011;26845;50.190;19.178;2022-10-16T08:18:30;13.95;;;9.05;;
41101;SDS011;26845;50.190;19.178;2022-10-16T08:20:59;15.95;;;9.38;;
41101;SDS011;26845;50.190;19.178;2022-10-16T08:23:26;14.13;;;8.90;;
41101;SDS011;26845;50.190;19.178;2022-10-16T08:25:54;11.35;;;8.73;;
41101;SDS011;26845;50.190;19.178;2022-10-16T08:28:22;9.85;;;8.18;;
41101;SDS011;26845;50.190;19.178;2022-10-16T08:30:49;12.20;;;8.98;;
41101;SDS011;26845;50.190;19.178;2022-10-16T08:33:16;10.93;;;8.33;;
41101;SDS011;26845;50.190;19.178;2022-10-16T08:35:49;10.55;;;7.80;;
41101;SDS011;26845;50.190;19.178;2022-10-16T08:38:20;13.60;;;8.98;;
41101;SDS011;26845;50.190;19.178;2022-10-16T08:40:47;11.93;;;8.70;;
41101;SDS011;26845;50.190;19.178;2022-10-16T08:48:48;11.05;;;8.23;;
41101;SDS011;26845;50.190;19.178;2022-10-16T08:51:23;9.68;;;7.65;;
41101;SDS011;26845;50.190;19.178;2022-10-16T08:53:56;10.95;;;7.42;;
41101;SDS011;26845;50.190;19.178;2022-10-16T08:56:27;10.78;;;8.03;;
41101;SDS011;26845;50.190;19.178;2022-10-16T08:58:54;8.75;;;7.30;;
41101;SDS011;26845;50.190;19.178;2022-10-16T09:01:24;13.38;;;7.30;;
41101;SDS011;26845;50.190;19.178;2022-10-16T09:10:04;10.10;;;7.90;;
41101;SDS011;26845;50.190;19.178;2022-10-16T09:13:03;11.10;;;7.50;;
41101;SDS011;26845;50.190;19.178;2022-10-16T09:15:51;11.28;;;7.20;;
41101;SDS011;26845;50.190;19.178;2022-10-16T09:18:22;14.23;;;8.33;;
41101;SDS011;26845;50.190;19.178;2022-10-16T09:21:41;12.80;;;8.88;;
41101;SDS011;26845;50.190;19.178;2022-10-16T09:23:40;9.95;;;7.08;;
41101;SDS011;26845;50.190;19.178;2022-10-16T09:26:09;12.75;;;8.10;;
41101;SDS011;26845;50.190;19.178;2022-10-16T09:28:38;9.10;;;7.50;;
41101;SDS011;26845;50.190;19.178;2022-10-16T09:31:10;15.20;;;8.50;;
41101;SDS011;26845;50.190;19.178;2022-10-16T09:33:53;9.68;;;7.50;;
41101;SDS011;26845;50.190;19.178;2022-10-16T09:39:07;10.43;;;8.05;;
41101;SDS011;26845;50.190;19.178;2022-10-16T09:41:38;13.90;;;7.60;;
41101;SDS011;26845;50.190;19.178;2022-10-16T09:47:11;10.05;;;7.28;;
41101;SDS011;26845;50.190;19.178;2022-10-16T09:49:59;10.60;;;7.60;;
41101;SDS011;26845;50.190;19.178;2022-10-16T09:52:33;9.98;;;7.92;;
41101;SDS011;26845;50.190;19.178;2022-10-16T09:55:12;10.68;;;7.90;;
41101;SDS011;26845;50.190;19.178;2022-10-16T09:57:52;11.35;;;7.37;;
41101;SDS011;26845;50.190;19.178;2022-10-16T10:00:21;10.58;;;7.10;;
41101;SDS011;26845;50.190;19.178;2022-10-16T10:02:50;8.05;;;6.10;;
41101;SDS011;26845;50.190;19.178;2022-10-16T10:05:19;8.55;;;5.30;;
41101;SDS011;26845;50.190;19.178;2022-10-16T10:07:57;7.70;;;5.47;;
41101;SDS011;26845;50.190;19.178;2022-10-16T10:10:30;6.50;;;4.60;;
41101;SDS011;26845;50.190;19.178;2022-10-16T10:12:59;5.15;;;4.65;;
41101;SDS011;26845;50.190;19.178;2022-10-16T10:15:27;5.78;;;4.72;;
41101;SDS011;26845;50.190;19.178;2022-10-16T10:17:59;4.53;;;4.12;;
41101;SDS011;26845;50.190;19.178;2022-10-16T10:20:29;8.08;;;5.00;;
41101;SDS011;26845;50.190;19.178;2022-10-16T10:23:01;6.35;;;4.58;;
41101;SDS011;26845;50.190;19.178;2022-10-16T10:25:52;8.40;;;5.10;;
41101;SDS011;26845;50.190;19.178;2022-10-16T10:31:14;6.35;;;5.03;;
41101;SDS011;26845;50.190;19.178;2022-10-16T10:37:22;6.47;;;5.40;;
41101;SDS011;26845;50.190;19.178;2022-10-16T10:39:56;8.35;;;4.83;;
41101;SDS011;26845;50.190;19.178;2022-10-16T10:42:36;5.65;;;4.53;;
41101;SDS011;26845;50.190;19.178;2022-10-16T10:51:08;5.90;;;5.30;;
41101;SDS011;26845;50.190;19.178;2022-10-16T10:53:39;6.85;;;5.12;;
41101;SDS011;26845;50.190;19.178;2022-10-16T10:59:30;7.17;;;5.00;;
41101;SDS011;26845;50.190;19.178;2022-10-16T11:07:58;8.63;;;4.97;;
41101;SDS011;26845;50.190;19.178;2022-10-16T11:13:40;5.90;;;4.75;;
41101;SDS011;26845;50.190;19.178;2022-10-16T11:16:27;9.50;;;5.60;;
41101;SDS011;26845;50.190;19.178;2022-10-16T11:22:25;6.80;;;5.12;;
41101;SDS011;26845;50.190;19.178;2022-10-16T11:25:11;5.83;;;5.03;;
41101;SDS011;26845;50.190;19.178;2022-10-16T11:27:44;8.35;;;5.40;;
41101;SDS011;26845;50.190;19.178;2022-10-16T11:30:30;8.00;;;5.55;;
41101;SDS011;26845;50.190;19.178;2022-10-16T11:41:53;6.40;;;4.80;;
41101;SDS011;26845;50.190;19.178;2022-10-16T11:47:36;7.50;;;5.72;;
41101;SDS011;26845;50.190;19.178;2022-10-16T11:56:04;10.13;;;5.78;;
41101;SDS011;26845;50.190;19.178;2022-10-16T11:58:41;7.95;;;5.50;;
41101;SDS011;26845;50.190;19.178;2022-10-16T12:01:21;7.50;;;5.25;;
41101;SDS011;26845;50.190;19.178;2022-10-16T12:04:30;7.03;;;5.25;;
41101;SDS011;26845;50.190;19.178;2022-10-16T12:07:06;6.25;;;4.85;;
41101;SDS011;26845;50.190;19.178;2022-10-16T12:09:39;8.43;;;6.10;;
41101;SDS011;26845;50.190;19.178;2022-10-16T12:17:55;6.28;;;5.17;;
41101;SDS011;26845;50.190;19.178;2022-10-16T12:20:27;6.83;;;5.55;;
41101;SDS011;26845;50.190;19.178;2022-10-16T12:23:02;6.72;;;5.60;;
41101;SDS011;26845;50.190;19.178;2022-10-16T12:25:35;8.10;;;5.35;;
41101;SDS011;26845;50.190;19.178;2022-10-16T12:30:59;8.20;;;5.87;;
41101;SDS011;26845;50.190;19.178;2022-10-16T12:33:40;7.33;;;6.03;;
41101;SDS011;26845;50.190;19.178;2022-10-16T12:36:16;6.67;;;5.75;;
41101;SDS011;26845;50.190;19.178;2022-10-16T12:38:56;5.90;;;4.90;;
41101;SDS011;26845;50.190;19.178;2022-10-16T12:41:27;5.60;;;5.03;;
41101;SDS011;26845;50.190;19.178;2022-10-16T12:44:03;8.78;;;5.90;;
41101;SDS011;26845;50.190;19.178;2022-10-16T12:51:51;7.35;;;5.97;;
41101;SDS011;26845;50.190;19.178;2022-10-16T13:23:09;6.83;;;5.15;;
41101;SDS011;26845;50.190;19.178;2022-10-16T13:28:19;6.78;;;5.28;;
41101;SDS011;26845;50.190;19.178;2022-10-16T13:30:56;6.70;;;5.20;;
41101;SDS011;26845;50.190;19.178;2022-10-16T13:36:00;8.50;;;5.60;;
41101;SDS011;26845;50.190;19.178;2022-10-16T13:38:29;8.35;;;5.42;;
41101;SDS011;26845;50.190;19.178;2022-10-16T13:41:02;8.88;;;6.47;;
41101;SDS011;26845;50.190;19.178;2022-10-16T13:43:33;9.65;;;5.67;;
41101;SDS011;26845;50.190;19.178;2022-10-16T13:46:05;7.35;;;5.55;;
41101;SDS011;26845;50.190;19.178;2022-10-16T13:48:38;6.83;;;5.42;;
41101;SDS011;26845;50.190;19.178;2022-10-16T13:51:15;9.40;;;5.90;;
41101;SDS011;26845;50.190;19.178;2022-10-16T13:53:44;6.65;;;5.80;;
41101;SDS011;26845;50.190;19.178;2022-10-16T13:56:13;9.00;;;5.72;;
41101;SDS011;26845;50.190;19.178;2022-10-16T13:58:44;8.73;;;5.80;;
41101;SDS011;26845;50.190;19.178;2022-10-16T14:01:22;6.87;;;4.95;;
41101;SDS011;26845;50.190;19.178;2022-10-16T14:06:19;7.45;;;5.70;;
41101;SDS011;26845;50.190;19.178;2022-10-16T14:08:49;9.10;;;5.80;;
41101;SDS011;26845;50.190;19.178;2022-10-16T14:11:23;7.65;;;5.33;;
41101;SDS011;26845;50.190;19.178;2022-10-16T14:13:51;8.23;;;6.08;;
41101;SDS011;26845;50.190;19.178;2022-10-16T14:16:20;7.10;;;6.25;;
41101;SDS011;26845;50.190;19.178;2022-10-16T14:18:55;7.42;;;5.97;;
41101;SDS011;26845;50.190;19.178;2022-10-16T14:21:31;8.18;;;6.08;;
41101;SDS011;26845;50.190;19.178;2022-10-16T14:23:58;9.33;;;5.85;;
41101;SDS011;26845;50.190;19.178;2022-10-16T14:26:26;9.53;;;6.75;;
41101;SDS011;26845;50.190;19.178;2022-10-16T14:29:01;10.48;;;6.45;;
41101;SDS011;26845;50.190;19.178;2022-10-16T14:31:34;7.97;;;6.30;;
41101;SDS011;26845;50.190;19.178;2022-10-16T14:34:03;8.00;;;6.60;;
41101;SDS011;26845;50.190;19.178;2022-10-16T14:36:30;11.93;;;6.55;;
41101;SDS011;26845;50.190;19.178;2022-10-16T14:39:01;7.85;;;5.95;;
41101;SDS011;26845;50.190;19.178;2022-10-16T14:41:32;7.55;;;6.03;;
41101;SDS011;26845;50.190;19.178;2022-10-16T14:44:04;8.93;;;6.10;;
41101;SDS011;26845;50.190;19.178;2022-10-16T14:46:32;8.60;;;6.80;;
41101;SDS011;26845;50.190;19.178;2022-10-16T14:51:43;8.15;;;6.33;;
41101;SDS011;26845;50.190;19.178;2022-10-16T14:54:11;9.10;;;6.65;;
41101;SDS011;26845;50.190;19.178;2022-10-16T14:56:47;9.43;;;6.95;;
41101;SDS011;26845;50.190;19.178;2022-10-16T15:04:54;14.20;;;7.03;;
41101;SDS011;26845;50.190;19.178;2022-10-16T15:07:22;11.08;;;6.30;;
41101;SDS011;26845;50.190;19.178;2022-10-16T15:09:50;11.63;;;6.60;;
41101;SDS011;26845;50.190;19.178;2022-10-16T15:12:17;9.48;;;6.40;;
41101;SDS011;26845;50.190;19.178;2022-10-16T15:14:44;7.90;;;6.47;;
41101;SDS011;26845;50.190;19.178;2022-10-16T15:17:11;11.03;;;6.20;;
41101;SDS011;26845;50.190;19.178;2022-10-16T15:19:38;7.35;;;6.37;;
41101;SDS011;26845;50.190;19.178;2022-10-16T15:22:05;10.08;;;6.37;;
41101;SDS011;26845;50.190;19.178;2022-10-16T15:24:35;8.35;;;6.03;;
41101;SDS011;26845;50.190;19.178;2022-10-16T15:27:02;8.18;;;6.60;;
41101;SDS011;26845;50.190;19.178;2022-10-16T15:29:29;7.15;;;6.00;;
41101;SDS011;26845;50.190;19.178;2022-10-16T15:31:55;7.95;;;6.22;;
41101;SDS011;26845;50.190;19.178;2022-10-16T15:34:22;9.55;;;6.92;;
41101;SDS011;26845;50.190;19.178;2022-10-16T15:36:49;8.50;;;6.95;;
41101;SDS011;26845;50.190;19.178;2022-10-16T15:39:17;8.18;;;6.75;;
41101;SDS011;26845;50.190;19.178;2022-10-16T15:41:46;8.90;;;6.40;;
41101;SDS011;26845;50.190;19.178;2022-10-16T15:46:44;7.17;;;5.90;;
41101;SDS011;26845;50.190;19.178;2022-10-16T15:49:11;10.15;;;6.78;;
41101;SDS011;26845;50.190;19.178;2022-10-16T15:51:38;8.23;;;6.40;;
41101;SDS011;26845;50.190;19.178;2022-10-16T15:54:07;8.88;;;6.67;;
41101;SDS011;26845;50.190;19.178;2022-10-16T15:56:34;7.97;;;6.37;;
41101;SDS011;26845;50.190;19.178;2022-10-16T15:59:03;8.73;;;6.60;;
41101;SDS011;26845;50.190;19.178;2022-10-16T16:01:33;8.75;;;6.17;;
41101;SDS011;26845;50.190;19.178;2022-10-16T16:04:02;8.20;;;6.53;;
41101;SDS011;26845;50.190;19.178;2022-10-16T16:06:30;8.80;;;6.60;;
41101;SDS011;26845;50.190;19.178;2022-10-16T16:08:57;9.50;;;6.45;;
41101;SDS011;26845;50.190;19.178;2022-10-16T16:11:25;8.93;;;6.72;;
41101;SDS011;26845;50.190;19.178;2022-10-16T16:13:52;10.75;;;7.28;;
41101;SDS011;26845;50.190;19.178;2022-10-16T16:16:21;12.53;;;7.37;;
41101;SDS011;26845;50.190;19.178;2022-10-16T16:18:47;9.50;;;7.12;;
41101;SDS011;26845;50.190;19.178;2022-10-16T16:21:15;13.65;;;7.58;;
41101;SDS011;26845;50.190;19.178;2022-10-16T16:23:42;12.70;;;7.50;;
41101;SDS011;26845;50.190;19.178;2022-10-16T16:26:13;10.90;;;7.50;;
41101;SDS011;26845;50.190;19.178;2022-10-16T16:28:43;13.55;;;8.95;;
41101;SDS011;26845;50.190;19.178;2022-10-16T16:31:10;11.15;;;8.23;;
41101;SDS011;26845;50.190;19.178;2022-10-16T16:33:37;12.95;;;8.50;;
41101;SDS011;26845;50.190;19.178;2022-10-16T16:36:04;11.03;;;8.03;;
41101;SDS011;26845;50.190;19.178;2022-10-16T16:38:32;10.85;;;7.00;;
41101;SDS011;26845;50.190;19.178;2022-10-16T16:41:00;10.68;;;7.80;;
41101;SDS011;26845;50.190;19.178;2022-10-16T16:43:40;12.18;;;7.62;;
41101;SDS011;26845;50.190;19.178;2022-10-16T16:46:07;10.98;;;7.35;;
41101;SDS011;26845;50.190;19.178;2022-10-16T16:48:37;11.43;;;7.28;;
41101;SDS011;26845;50.190;19.178;2022-10-16T16:51:09;9.13;;;7.78;;
41101;SDS011;26845;50.190;19.178;2022-10-16T16:53:38;10.23;;;7.28;;
41101;SDS011;26845;50.190;19.178;2022-10-16T16:56:05;12.68;;;7.55;;
41101;SDS011;26845;50.190;19.178;2022-10-16T16:58:32;17.00;;;7.53;;
41101;SDS011;26845;50.190;19.178;2022-10-16T17:01:00;14.20;;;7.72;;